Time;durP1;ratioP1;P1;durP2;ratioP2;P2;SDS_P1;SDS_P2;PMS_P1;PMS_P2;Temp;Humidity;BMP_temperature;BMP_pressure;BME280_temperature;BME280_humidity;BME280_pressure;Samples;Min_cycle;Max_cycle;Signal;HPM_P1;HPM_P2
2022/02/19 00:01:26;;;;;;;;;;;;;;;26.64;18.51;101057.31;5071924;28;1225;-38
2022/02/19 00:03:51;;;;;;;;;;;;;;;26.61;18.40;101060.38;5070406;28;1258;-37
2022/02/19 00:06:17;;;;;;;;;;;;;;;26.57;18.78;101064.44;5070251;28;1229;-36
2022/02/19 00:08:42;;;;;;;;;;;;;;;26.69;18.64;101069.47;5078870;28;1249;-37
2022/02/19 00:11:08;;;;;;;;;;;;;;;26.70;18.83;101057.66;5071709;28;1309;-38
2022/02/19 00:13:34;;;;;;;;;;;;;;;26.56;18.73;101057.34;5070823;28;1314;-36
2022/02/19 00:16:03;;;;;;;;;;;;;;;26.49;18.88;101059.06;5068954;28;1183;-36
2022/02/19 00:18:28;;;;;;;;;;;;;;;26.39;18.88;101059.25;5076012;28;1165;-40
2022/02/19 00:20:55;;;;;;;;;;;;;;;26.27;18.80;101051.47;5074135;28;1955;-37
2022/02/19 00:23:21;;;;;;;;;;;;;;;26.47;18.80;101048.44;5075796;28;1253;-37
2022/02/19 00:25:46;;;;;;;;;;;;;;;26.45;18.47;101047.75;5073304;28;1555;-35
2022/02/19 00:28:12;;;;;;;;;;;;;;;26.42;18.46;101045.41;5070839;28;1242;-38
2022/02/19 00:30:37;;;;;;;;;;;;;;;26.28;18.58;101042.34;5073267;28;1257;-39
2022/02/19 00:33:02;;;;;;;;;;;;;;;26.12;19.08;101051.31;5077577;28;1199;-46
2022/02/19 00:35:28;;;;;;;;;;;;;;;26.13;19.24;101052.97;5078842;28;789;-45
2022/02/19 00:37:53;;;;;;;;;;;;;;;26.22;19.06;101047.59;5078407;28;838;-45
2022/02/19 00:40:18;;;;;;;;;;;;;;;26.30;19.66;101042.19;5078100;28;1906;-45
2022/02/19 00:42:44;;;;;;;;;;;;;;;26.28;19.16;101049.59;5078044;28;841;-46
2022/02/19 00:45:09;;;;;;;;;;;;;;;26.16;19.11;101043.69;5077099;28;949;-44
2022/02/19 00:47:34;;;;;;;;;;;;;;;26.23;19.20;101044.72;5076452;28;714;-45
2022/02/19 00:49:59;;;;;;;;;;;;;;;26.32;18.67;101037.47;5072784;28;1083;-46
2022/02/19 00:52:25;;;;;;;;;;;;;;;26.48;18.71;101036.63;5074382;28;1281;-47
2022/02/19 00:54:51;;;;;;;;;;;;;;;26.82;19.47;101023.03;5074199;28;1210;-45
2022/02/19 00:57:16;;;;;;;;;;;;;;;27.26;18.93;101019.81;5078340;28;757;-46
2022/02/19 00:59:41;;;;;;;;;;;;;;;27.57;18.85;101019.97;5077905;28;1899;-46
2022/02/19 01:02:07;;;;;;;;;;;;;;;27.28;17.40;101013.41;5075828;28;1032;-46
2022/02/19 01:04:32;;;;;;;;;;;;;;;26.71;18.32;101030.47;5078162;28;758;-46
2022/02/19 01:06:57;;;;;;;;;;;;;;;26.49;18.24;101027.50;5077759;28;838;-46
2022/02/19 01:09:26;;;;;;;;;;;;;;;26.40;18.24;101032.09;5078021;28;805;-46
2022/02/19 01:11:51;;;;;;;;;;;;;;;26.47;18.29;101023.31;5078092;28;1190;-46
2022/02/19 01:14:16;;;;;;;;;;;;;;;26.49;18.28;101021.28;5077715;28;718;-47
2022/02/19 01:16:42;;;;;;;;;;;;;;;27.34;18.87;101015.41;5070638;28;897;-47
2022/02/19 01:19:07;;;;;;;;;;;;;;;27.58;18.64;101027.91;5077080;28;1947;-46
2022/02/19 01:21:32;;;;;;;;;;;;;;;27.61;17.01;101015.91;5077567;28;776;-47
2022/02/19 01:23:58;;;;;;;;;;;;;;;26.78;17.82;101018.00;5077884;28;861;-46
2022/02/19 01:26:23;;;;;;;;;;;;;;;26.64;18.73;101018.72;5077507;28;794;-47
2022/02/19 01:28:48;;;;;;;;;;;;;;;27.69;18.13;101002.38;5077170;28;1587;-45
2022/02/19 01:31:13;;;;;;;;;;;;;;;27.62;18.52;101015.72;5074329;28;886;-46
2022/02/19 01:33:39;;;;;;;;;;;;;;;27.71;18.29;101002.19;5076275;28;1137;-45
2022/02/19 01:36:04;;;;;;;;;;;;;;;27.87;18.02;101001.19;5075329;28;1399;-45
2022/02/19 01:38:30;;;;;;;;;;;;;;;27.92;18.01;100998.78;5075746;28;786;-45
2022/02/19 01:40:55;;;;;;;;;;;;;;;27.55;18.24;100998.53;5077040;28;1984;-47
2022/02/19 01:43:20;;;;;;;;;;;;;;;27.10;18.73;100988.34;5076751;28;877;-44
2022/02/19 01:45:47;;;;;;;;;;;;;;;27.29;18.94;101002.44;5071586;28;836;-46
2022/02/19 01:48:12;;;;;;;;;;;;;;;27.85;18.73;101000.53;5077012;28;729;-45
2022/02/19 01:50:37;;;;;;;;;;;;;;;27.89;18.32;101001.88;5077112;28;813;-44
2022/02/19 01:53:03;;;;;;;;;;;;;;;27.97;18.52;101003.66;5077119;28;784;-46
2022/02/19 01:55:28;;;;;;;;;;;;;;;27.99;18.50;100994.31;5076842;28;773;-44
2022/02/19 01:57:54;;;;;;;;;;;;;;;28.12;18.01;100995.56;5068973;28;865;-46
2022/02/19 02:00:19;;;;;;;;;;;;;;;27.58;18.25;101000.03;5075648;28;1897;-44
2022/02/19 02:02:45;;;;;;;;;;;;;;;27.36;18.62;101007.97;5076961;28;785;-45
2022/02/19 02:05:10;;;;;;;;;;;;;;;27.62;18.64;100991.41;5076756;28;817;-45
2022/02/19 02:07:35;;;;;;;;;;;;;;;27.86;17.57;100989.53;5075433;28;1693;-45
2022/02/19 02:10:01;;;;;;;;;;;;;;;27.50;18.34;100996.38;5076088;28;904;-45
2022/02/19 02:12:26;;;;;;;;;;;;;;;27.28;18.66;100998.03;5075303;28;794;-44
2022/02/19 02:14:51;;;;;;;;;;;;;;;27.17;18.93;100996.59;5076647;28;770;-44
2022/02/19 02:17:17;;;;;;;;;;;;;;;27.12;18.36;101004.38;5070298;28;1044;-45
2022/02/19 02:19:42;;;;;;;;;;;;;;;26.96;18.43;101005.28;5076832;28;1889;-45
2022/02/19 02:22:08;;;;;;;;;;;;;;;27.16;18.57;101005.69;5076541;28;1061;-44
2022/02/19 02:24:34;;;;;;;;;;;;;;;27.59;18.35;101010.66;5070297;28;801;-45
2022/02/19 02:26:59;;;;;;;;;;;;;;;27.61;18.53;101013.22;5076783;28;873;-47
2022/02/19 02:29:25;;;;;;;;;;;;;;;27.69;18.52;101004.22;5076225;28;809;-45
2022/02/19 02:31:50;;;;;;;;;;;;;;;27.75;18.30;101003.47;5072110;28;1146;-46
2022/02/19 02:34:15;;;;;;;;;;;;;;;27.92;17.88;101012.31;5076536;28;865;-45
2022/02/19 02:36:41;;;;;;;;;;;;;;;28.13;17.99;101013.47;5076132;28;824;-46
2022/02/19 02:39:06;;;;;;;;;;;;;;;28.30;17.79;101019.56;5076306;28;1963;-45
2022/02/19 02:41:31;;;;;;;;;;;;;;;28.45;17.45;101029.59;5076131;28;815;-45
2022/02/19 02:43:57;;;;;;;;;;;;;;;28.01;17.19;101017.66;5076346;28;833;-45
2022/02/19 02:46:22;;;;;;;;;;;;;;;27.62;17.82;101018.44;5076539;28;817;-36
2022/02/19 02:48:47;;;;;;;;;;;;;;;27.74;18.53;101026.97;5075723;28;1007;-36
2022/02/19 02:51:12;;;;;;;;;;;;;;;28.24;17.60;101026.53;5076016;28;908;-36
2022/02/19 02:53:38;;;;;;;;;;;;;;;28.38;17.52;101017.84;5076250;28;834;-37
2022/02/19 02:56:03;;;;;;;;;;;;;;;28.49;17.77;101028.19;5076457;28;845;-36
2022/02/19 02:58:28;;;;;;;;;;;;;;;28.47;17.91;101038.38;5075724;28;885;-36
2022/02/19 03:00:54;;;;;;;;;;;;;;;28.55;17.82;101045.53;5072280;28;1898;-37
2022/02/19 03:03:19;;;;;;;;;;;;;;;28.86;17.65;101049.97;5076298;28;801;-36
2022/02/19 03:05:44;;;;;;;;;;;;;;;28.39;17.92;101051.97;5075778;28;869;-36
2022/02/19 03:08:10;;;;;;;;;;;;;;;28.13;18.56;101051.31;5077327;28;814;-37
2022/02/19 03:10:35;;;;;;;;;;;;;;;28.75;17.73;101059.38;5080217;28;1011;-37
2022/02/19 03:13:01;;;;;;;;;;;;;;;28.15;18.43;101049.28;5080111;28;999;-37
2022/02/19 03:15:26;;;;;;;;;;;;;;;27.98;18.80;101045.88;5077588;28;804;-37
2022/02/19 03:17:51;;;;;;;;;;;;;;;27.89;19.01;101050.53;5079101;28;933;-37
2022/02/19 03:20:18;;;;;;;;;;;;;;;28.27;18.50;101048.84;5079687;28;1945;-36
2022/02/19 03:22:44;;;;;;;;;;;;;;;28.43;18.47;101053.28;5078157;28;872;-37
2022/02/19 03:25:19;;;;;;;;;;;;;;;28.60;18.12;101056.66;5078228;28;961;-37
2022/02/19 03:27:44;;;;;;;;;;;;;;;28.62;17.96;101067.28;5079627;28;781;-37
2022/02/19 03:30:10;;;;;;;;;;;;;;;28.67;18.11;101070.28;5079694;28;859;-36
2022/02/19 03:32:35;;;;;;;;;;;;;;;28.30;18.38;101070.97;5078065;28;1040;-36
2022/02/19 03:35:00;;;;;;;;;;;;;;;28.31;18.81;101071.81;5079673;28;765;-36
2022/02/19 03:37:26;;;;;;;;;;;;;;;27.90;18.60;101063.00;5079903;28;752;-36
2022/02/19 03:39:52;;;;;;;;;;;;;;;27.72;18.88;101066.03;5078882;28;1906;-36
2022/02/19 03:42:17;;;;;;;;;;;;;;;28.50;19.04;101066.91;5079595;28;805;-36
2022/02/19 03:44:43;;;;;;;;;;;;;;;28.10;19.28;101065.22;5079674;28;829;-35
2022/02/19 03:47:08;;;;;;;;;;;;;;;28.24;19.21;101067.09;5073420;28;835;-35
2022/02/19 03:49:33;;;;;;;;;;;;;;;28.18;19.23;101069.69;5079333;28;792;-37
2022/02/19 03:51:58;;;;;;;;;;;;;;;27.81;19.27;101073.03;5077454;28;885;-37
2022/02/19 03:54:24;;;;;;;;;;;;;;;27.51;19.65;101071.00;5078939;28;813;-36
2022/02/19 03:56:49;;;;;;;;;;;;;;;27.55;19.46;101071.50;5079042;28;725;-37
2022/02/19 03:59:14;;;;;;;;;;;;;;;28.21;19.22;101066.66;5079430;28;1898;-38
2022/02/19 04:01:40;;;;;;;;;;;;;;;28.50;18.82;101058.78;5073787;28;1063;-37
2022/02/19 04:04:06;;;;;;;;;;;;;;;28.01;18.98;101056.31;5076946;28;1237;-36
2022/02/19 04:06:31;;;;;;;;;;;;;;;28.01;19.26;101061.72;5078468;28;992;-36
2022/02/19 04:08:56;;;;;;;;;;;;;;;27.45;19.82;101058.22;5078801;28;833;-36
2022/02/19 04:11:22;;;;;;;;;;;;;;;27.18;19.84;101054.13;5078914;28;1161;-36
2022/02/19 04:13:47;;;;;;;;;;;;;;;27.43;19.92;101062.09;5078749;28;893;-42
2022/02/19 04:16:12;;;;;;;;;;;;;;;27.46;19.20;101075.28;5074762;28;839;-43
2022/02/19 04:18:38;;;;;;;;;;;;;;;27.60;17.84;101079.06;5078428;28;797;-42
2022/02/19 04:21:03;;;;;;;;;;;;;;;27.62;17.78;101071.63;5077668;28;1905;-42
2022/02/19 04:23:28;;;;;;;;;;;;;;;27.74;17.18;101066.69;5078783;28;849;-42
2022/02/19 04:25:54;;;;;;;;;;;;;;;27.81;16.52;101061.41;5078647;28;786;-42
2022/02/19 04:28:21;;;;;;;;;;;;;;;27.95;16.39;101057.91;5078393;28;1070;-42
2022/02/19 04:30:47;;;;;;;;;;;;;;;27.99;16.02;101052.97;5075799;28;804;-41
2022/02/19 04:33:12;;;;;;;;;;;;;;;28.17;15.77;101052.66;5078423;28;1016;-42
2022/02/19 04:35:37;;;;;;;;;;;;;;;28.02;15.51;101049.91;5078221;28;923;-42
2022/02/19 04:38:03;;;;;;;;;;;;;;;26.60;13.90;101049.75;5078699;28;864;-42
2022/02/19 04:40:28;;;;;;;;;;;;;;;25.75;14.32;101041.84;5078586;28;1975;-41
2022/02/19 04:42:53;;;;;;;;;;;;;;;25.34;14.73;101042.56;5077177;28;772;-40
2022/02/19 04:45:19;;;;;;;;;;;;;;;26.69;16.62;101050.56;5076412;28;1081;-43
2022/02/19 04:47:44;;;;;;;;;;;;;;;27.45;15.88;101046.56;5066684;28;3202;-42
2022/02/19 04:50:09;;;;;;;;;;;;;;;27.38;15.80;101054.53;5075555;28;1198;-42
2022/02/19 04:52:35;;;;;;;;;;;;;;;27.60;15.49;101049.34;5075388;28;1024;-42
2022/02/19 04:55:00;;;;;;;;;;;;;;;27.57;15.81;101050.56;5078627;28;944;-35
2022/02/19 04:57:25;;;;;;;;;;;;;;;27.82;15.70;101054.97;5077515;28;915;-37
2022/02/19 04:59:51;;;;;;;;;;;;;;;28.07;15.67;101066.44;5078049;28;1972;-39
2022/02/19 05:02:16;;;;;;;;;;;;;;;25.84;16.45;101075.03;5077143;28;978;-36
2022/02/19 05:04:42;;;;;;;;;;;;;;;24.42;16.65;101067.13;5077881;28;1371;-35
2022/02/19 05:07:07;;;;;;;;;;;;;;;24.09;17.20;101066.84;5077845;28;939;-41
2022/02/19 05:09:32;;;;;;;;;;;;;;;23.57;17.44;101076.44;5077567;28;1059;-37
2022/02/19 05:11:58;;;;;;;;;;;;;;;23.45;17.54;101086.53;5077716;28;1067;-36
2022/02/19 05:14:23;;;;;;;;;;;;;;;24.40;17.42;101092.50;5077530;28;822;-35
2022/02/19 05:16:48;;;;;;;;;;;;;;;25.28;15.80;101085.31;5076980;28;905;-33
2022/02/19 05:19:13;;;;;;;;;;;;;;;25.63;15.90;101093.34;5077547;28;1905;-37
2022/02/19 05:21:39;;;;;;;;;;;;;;;26.03;15.73;101087.34;5074242;28;1079;-36
2022/02/19 05:24:04;;;;;;;;;;;;;;;26.36;15.67;101087.38;5077629;28;797;-38
2022/02/19 05:26:29;;;;;;;;;;;;;;;26.66;15.75;101092.22;5077506;28;1164;-36
2022/02/19 05:28:55;;;;;;;;;;;;;;;26.78;16.07;101092.72;5077404;28;860;-36
2022/02/19 05:31:20;;;;;;;;;;;;;;;27.01;16.19;101087.44;5072952;28;1424;-36
2022/02/19 05:33:45;;;;;;;;;;;;;;;27.23;16.52;101089.53;5073279;28;1059;-37
2022/02/19 05:36:11;;;;;;;;;;;;;;;27.30;16.69;101078.88;5073816;28;861;-37
2022/02/19 05:38:36;;;;;;;;;;;;;;;27.38;16.77;101071.59;5076993;28;817;-37
2022/02/19 05:41:01;;;;;;;;;;;;;;;27.52;16.93;101061.03;5077122;28;1906;-37
2022/02/19 05:43:27;;;;;;;;;;;;;;;27.61;16.99;101069.94;5077149;28;845;-36
2022/02/19 05:45:52;;;;;;;;;;;;;;;27.71;17.30;101070.56;5072933;28;881;-36
2022/02/19 05:48:17;;;;;;;;;;;;;;;27.85;17.05;101081.63;5073792;28;827;-36
2022/02/19 05:50:46;;;;;;;;;;;;;;;27.94;17.26;101087.84;5076863;28;927;-37
2022/02/19 05:53:12;;;;;;;;;;;;;;;28.03;17.25;101091.31;5076790;28;825;-36
2022/02/19 05:55:37;;;;;;;;;;;;;;;28.10;17.73;101095.81;5076898;28;809;-36
2022/02/19 05:58:02;;;;;;;;;;;;;;;28.17;17.43;101095.94;5076992;28;812;-37
2022/02/19 06:00:28;;;;;;;;;;;;;;;28.26;17.72;101090.44;5069966;28;1955;-37
2022/02/19 06:02:53;;;;;;;;;;;;;;;28.43;17.67;101085.75;5076523;28;845;-37
2022/02/19 06:05:18;;;;;;;;;;;;;;;28.57;17.78;101079.53;5076654;28;818;-36
2022/02/19 06:07:44;;;;;;;;;;;;;;;28.79;17.68;101084.22;5076854;28;875;-37
2022/02/19 06:10:09;;;;;;;;;;;;;;;28.95;17.59;101084.03;5076716;28;1047;-36
2022/02/19 06:12:34;;;;;;;;;;;;;;;28.95;17.91;101088.59;5073437;28;829;-35
2022/02/19 06:15:00;;;;;;;;;;;;;;;29.05;17.87;101096.44;5076077;28;825;-37
2022/02/19 06:17:25;;;;;;;;;;;;;;;29.00;17.75;101102.44;5076648;28;838;-37
2022/02/19 06:19:50;;;;;;;;;;;;;;;29.05;17.87;101102.72;5076138;28;1953;-37
2022/02/19 06:22:16;;;;;;;;;;;;;;;29.09;17.84;101114.03;5076777;28;766;-36
2022/02/19 06:24:41;;;;;;;;;;;;;;;28.85;18.28;101118.66;5075576;28;895;-35
2022/02/19 06:27:06;;;;;;;;;;;;;;;28.79;18.49;101111.28;5076495;28;834;-35
2022/02/19 06:29:31;;;;;;;;;;;;;;;28.73;18.66;101108.28;5076526;28;849;-36
2022/02/19 06:31:57;;;;;;;;;;;;;;;28.85;18.34;101103.25;5075618;28;1124;-35
2022/02/19 06:34:22;;;;;;;;;;;;;;;29.02;18.31;101111.22;5076349;28;813;-37
2022/02/19 06:36:47;;;;;;;;;;;;;;;29.67;17.74;101104.31;5076486;28;1005;-38
2022/02/19 06:39:13;;;;;;;;;;;;;;;29.66;17.68;101099.94;5072790;28;1910;-37
2022/02/19 06:41:38;;;;;;;;;;;;;;;28.91;18.30;101101.66;5075091;28;880;-36
2022/02/19 06:44:03;;;;;;;;;;;;;;;28.62;18.62;101099.78;5066841;28;993;-34
2022/02/19 06:46:29;;;;;;;;;;;;;;;28.41;19.01;101098.63;5069464;28;871;-36
2022/02/19 06:48:54;;;;;;;;;;;;;;;28.48;19.01;101096.84;5075472;28;885;-37
2022/02/19 06:51:20;;;;;;;;;;;;;;;28.83;18.93;101101.75;5069380;28;833;-36
2022/02/19 06:53:45;;;;;;;;;;;;;;;29.17;18.40;101094.13;5076278;28;873;-37
2022/02/19 06:56:10;;;;;;;;;;;;;;;29.25;18.48;101088.59;5075753;28;931;-37
2022/02/19 06:58:35;;;;;;;;;;;;;;;29.31;18.32;101087.81;5076189;28;764;-36
2022/02/19 07:01:01;;;;;;;;;;;;;;;29.26;18.21;101092.97;5075612;28;1902;-36
2022/02/19 07:03:26;;;;;;;;;;;;;;;28.82;18.69;101087.38;5075710;28;903;-36
2022/02/19 07:05:53;;;;;;;;;;;;;;;29.52;18.62;101086.19;5076138;28;820;-38
2022/02/19 07:08:20;;;;;;;;;;;;;;;30.84;17.09;101091.53;5076159;28;923;-38
2022/02/19 07:10:45;;;;;;;;;;;;;;;30.58;17.14;101091.13;5075485;28;1059;-44
2022/02/19 07:13:10;;;;;;;;;;;;;;;30.55;17.29;101097.81;5076077;28;833;-38
2022/02/19 07:15:36;;;;;;;;;;;;;;;30.81;17.36;101103.66;5074662;28;834;-39
2022/02/19 07:18:01;;;;;;;;;;;;;;;31.00;16.80;101096.63;5075842;28;825;-38
2022/02/19 07:20:27;;;;;;;;;;;;;;;31.24;17.06;101094.47;5075879;28;1963;-43
2022/02/19 07:22:52;;;;;;;;;;;;;;;31.17;17.20;101093.59;5075589;28;908;-39
2022/02/19 07:25:18;;;;;;;;;;;;;;;31.27;16.97;101090.47;5075647;28;796;-42
2022/02/19 07:27:43;;;;;;;;;;;;;;;31.42;17.06;101098.50;5075755;28;848;-39
2022/02/19 07:30:10;;;;;;;;;;;;;;;31.27;17.00;101101.34;5075334;28;847;-38
2022/02/19 07:32:35;;;;;;;;;;;;;;;31.17;16.75;101104.44;5075559;28;1148;-38
2022/02/19 07:35:01;;;;;;;;;;;;;;;31.12;16.98;101104.22;5076128;28;782;-37
2022/02/19 07:37:26;;;;;;;;;;;;;;;31.65;17.60;101102.75;5075831;28;788;-49
2022/02/19 07:39:53;;;;;;;;;;;;;;;31.94;16.62;101089.00;5075406;28;1896;-38
2022/02/19 07:42:18;;;;;;;;;;;;;;;32.03;16.29;101090.50;5075015;28;1144;-39
2022/02/19 07:44:43;;;;;;;;;;;;;;;31.99;15.93;101097.41;5075295;28;889;-39
2022/02/19 07:47:08;;;;;;;;;;;;;;;31.90;16.18;101099.44;5069268;28;863;-39
2022/02/19 07:58:29;;;;;;;;;;;;;;;31.62;16.83;101090.41;5079016;28;695;-38
2022/02/19 08:00:34;;;;;;;;;;;;;;;31.58;16.83;101091.84;5073275;28;1902;-37
2022/02/19 08:02:59;;;;;;;;;;;;;;;31.55;16.64;101096.88;5079182;28;871;-39
2022/02/19 08:05:24;;;;;;;;;;;;;;;30.50;16.25;101085.84;5079026;28;774;-38
2022/02/19 08:07:50;;;;;;;;;;;;;;;29.62;16.10;101095.91;5078855;28;872;-39
2022/02/19 08:10:15;;;;;;;;;;;;;;;30.22;16.36;101090.25;5078977;28;1055;-39
2022/02/19 08:12:40;;;;;;;;;;;;;;;30.72;17.11;101088.50;5078818;28;827;-38
2022/02/19 08:15:06;;;;;;;;;;;;;;;30.85;16.63;101090.50;5078023;28;950;-43
2022/02/19 08:17:31;;;;;;;;;;;;;;;30.85;16.76;101085.91;5076903;28;974;-38
2022/02/19 08:19:57;;;;;;;;;;;;;;;30.19;18.09;101075.19;5078031;28;1898;-38
2022/02/19 08:22:22;;;;;;;;;;;;;;;30.51;17.48;101072.09;5078968;28;877;-38
2022/02/19 08:24:48;;;;;;;;;;;;;;;30.37;17.60;101068.47;5078055;28;1029;-39
2022/02/19 08:27:13;;;;;;;;;;;;;;;29.74;17.92;101069.13;5076997;28;1446;-39
2022/02/19 08:29:38;;;;;;;;;;;;;;;29.50;18.24;101060.31;5077267;28;816;-35
2022/02/19 08:32:04;;;;;;;;;;;;;;;30.00;17.69;101060.41;5075329;28;1161;-38
2022/02/19 08:34:29;;;;;;;;;;;;;;;30.25;17.59;101056.44;5078240;28;1575;-37
2022/02/19 08:36:56;;;;;;;;;;;;;;;30.37;17.41;101054.03;5078437;28;849;-38
2022/02/19 08:39:22;;;;;;;;;;;;;;;30.50;17.36;101061.44;5078730;28;1961;-42
2022/02/19 08:41:48;;;;;;;;;;;;;;;30.47;17.73;101067.25;5078526;28;801;-40
2022/02/19 08:44:13;;;;;;;;;;;;;;;30.41;17.61;101064.28;5078258;28;761;-40
2022/02/19 08:46:38;;;;;;;;;;;;;;;30.37;17.74;101060.31;5071656;28;875;-40
2022/02/19 08:49:04;;;;;;;;;;;;;;;30.42;17.71;101060.56;5078362;28;801;-40
2022/02/19 08:51:29;;;;;;;;;;;;;;;30.42;17.77;101048.84;5078067;28;928;-40
2022/02/19 08:53:54;;;;;;;;;;;;;;;30.38;18.00;101047.59;5078047;28;885;-40
2022/02/19 08:56:20;;;;;;;;;;;;;;;30.36;17.90;101045.09;5077800;28;885;-39
2022/02/19 08:58:45;;;;;;;;;;;;;;;30.33;18.13;101050.88;5071615;28;788;-39
2022/02/19 09:01:10;;;;;;;;;;;;;;;30.35;18.09;101047.97;5075760;28;1912;-40
2022/02/19 09:03:36;;;;;;;;;;;;;;;30.34;18.25;101038.16;5078244;28;860;-38
2022/02/19 09:06:01;;;;;;;;;;;;;;;30.39;18.27;101030.25;5077637;28;781;-41
2022/02/19 09:08:26;;;;;;;;;;;;;;;30.33;18.31;101033.78;5077858;28;889;-37
2022/02/19 09:10:52;;;;;;;;;;;;;;;29.89;18.25;101031.97;5076517;28;814;-46
2022/02/19 09:13:17;;;;;;;;;;;;;;;29.79;18.67;101035.00;5078173;28;753;-47
2022/02/19 09:15:42;;;;;;;;;;;;;;;30.04;18.36;101033.75;5077402;28;1060;-47
2022/02/19 09:18:07;;;;;;;;;;;;;;;30.05;18.52;101028.13;5078133;28;812;-48
2022/02/19 09:20:33;;;;;;;;;;;;;;;30.01;18.64;101023.28;5078072;28;1926;-45
2022/02/19 09:22:59;;;;;;;;;;;;;;;29.99;18.70;101022.63;5076777;28;781;-46
2022/02/19 09:25:24;;;;;;;;;;;;;;;30.22;18.53;101019.72;5077547;28;836;-46
2022/02/19 09:27:50;;;;;;;;;;;;;;;30.52;18.05;101015.94;5077795;28;825;-46
2022/02/19 09:30:16;;;;;;;;;;;;;;;30.43;17.62;101023.38;5076539;28;871;-48
2022/02/19 09:32:41;;;;;;;;;;;;;;;30.47;17.92;101021.97;5072955;28;1253;-46
2022/02/19 09:35:06;;;;;;;;;;;;;;;30.41;17.95;101009.19;5077056;28;883;-45
2022/02/19 09:37:32;;;;;;;;;;;;;;;30.31;17.87;101004.94;5076575;28;877;-46
2022/02/19 09:39:57;;;;;;;;;;;;;;;30.19;18.34;100999.22;5077589;28;1910;-48
2022/02/19 09:42:23;;;;;;;;;;;;;;;30.49;17.77;100997.31;5077365;28;873;-46
2022/02/19 09:44:48;;;;;;;;;;;;;;;30.49;17.37;100997.31;5077038;28;830;-44
2022/02/19 09:47:14;;;;;;;;;;;;;;;30.52;17.46;100992.34;5074774;28;831;-47
2022/02/19 09:49:39;;;;;;;;;;;;;;;30.43;17.88;100983.50;5070612;28;869;-45
2022/02/19 09:52:05;;;;;;;;;;;;;;;30.33;18.26;100977.59;5076291;28;802;-45
2022/02/19 09:54:30;;;;;;;;;;;;;;;30.30;18.04;100973.44;5076825;28;868;-46
2022/02/19 09:56:55;;;;;;;;;;;;;;;30.31;17.55;100969.66;5077011;28;811;-46
2022/02/19 09:59:21;;;;;;;;;;;;;;;30.59;17.09;100967.09;5077209;28;1958;-48
2022/02/19 10:02:03;;;;;;;;;;;;;;;30.48;17.44;100966.63;5072593;28;1012;-45
2022/02/19 10:04:29;;;;;;;;;;;;;;;30.30;17.52;100959.00;5070629;28;849;-47
2022/02/19 10:06:56;;;;;;;;;;;;;;;29.45;18.57;100936.22;5076968;28;926;-45
2022/02/19 10:09:23;;;;;;;;;;;;;;;29.56;17.50;100943.00;5070157;28;972;-45
2022/02/19 10:11:49;;;;;;;;;;;;;;;29.95;18.27;100938.09;5071837;28;1083;-45
2022/02/19 10:14:29;;;;;;;;;;;;;;;29.29;18.57;100935.47;5076511;28;908;-47
2022/02/19 10:17:04;;;;;;;;;;;;;;;29.45;17.84;100930.78;5065225;28;990;-37
2022/02/19 10:19:30;;;;;;;;;;;;;;;29.75;17.57;100933.38;5076571;28;1902;-40
2022/02/19 10:22:08;;;;;;;;;;;;;;;29.92;17.83;100933.94;5076515;28;833;-40
2022/02/19 10:24:35;;;;;;;;;;;;;;;30.05;17.18;100929.63;5076177;28;827;-37
2022/02/19 10:27:00;;;;;;;;;;;;;;;29.98;17.33;100932.28;5076200;28;816;-37
2022/02/19 10:29:25;;;;;;;;;;;;;;;29.99;18.00;100935.84;5074966;28;817;-41
2022/02/19 10:31:55;;;;;;;;;;;;;;;30.13;17.77;100932.16;5073847;28;1209;-43
2022/02/19 10:34:20;;;;;;;;;;;;;;;30.13;17.48;100934.06;5076601;28;860;-39
2022/02/19 10:36:46;;;;;;;;;;;;;;;29.78;18.19;100919.41;5076432;28;822;-40
2022/02/19 10:39:12;;;;;;;;;;;;;;;29.51;18.46;100918.34;5075964;28;1967;-39
2022/02/19 10:41:38;;;;;;;;;;;;;;;29.16;18.65;100917.19;5074759;28;851;-39
2022/02/19 10:44:18;;;;;;;;;;;;;;;29.03;18.60;100912.47;5076303;28;927;-34
2022/02/19 10:46:44;;;;;;;;;;;;;;;28.73;12.90;100899.00;5071850;28;943;-32
2022/02/19 10:49:11;;;;;;;;;;;;;;;26.89;12.16;100887.19;5076368;28;757;-43
2022/02/19 10:51:36;;;;;;;;;;;;;;;23.22;14.16;100875.69;5076037;28;925;-42
2022/02/19 10:54:02;;;;;;;;;;;;;;;23.82;15.74;100883.28;5075877;28;900;-45
2022/02/19 10:56:28;;;;;;;;;;;;;;;26.29;13.24;100887.63;5074985;28;893;-46
2022/02/19 10:59:00;;;;;;;;;;;;;;;27.67;13.32;100884.59;5075800;28;741;-45
2022/02/19 11:01:25;;;;;;;;;;;;;;;28.59;16.32;100881.78;5075872;28;1893;-46
2022/02/19 11:03:50;;;;;;;;;;;;;;;28.66;16.63;100887.28;5076106;28;1115;-46
2022/02/19 11:06:16;;;;;;;;;;;;;;;28.84;16.34;100873.31;5069654;28;809;-46
2022/02/19 11:08:41;;;;;;;;;;;;;;;28.82;16.60;100870.78;5057275;28;742;-47
2022/02/19 11:11:07;;;;;;;;;;;;;;;28.79;16.88;100864.91;5076173;28;1019;-45
2022/02/19 11:13:34;;;;;;;;;;;;;;;28.88;16.97;100849.41;5075963;28;781;-44
2022/02/19 11:15:59;;;;;;;;;;;;;;;28.85;16.92;100839.78;5072264;28;916;-46
2022/02/19 11:18:26;;;;;;;;;;;;;;;28.85;17.36;100845.19;5069511;28;1281;-46
2022/02/19 11:20:51;;;;;;;;;;;;;;;28.65;17.49;100840.41;5074518;28;1965;-46
2022/02/19 11:23:16;;;;;;;;;;;;;;;28.87;17.55;100843.13;5068131;28;1250;-46
2022/02/19 11:25:42;;;;;;;;;;;;;;;28.64;17.50;100846.00;5071719;28;1207;-36
2022/02/19 11:28:08;;;;;;;;;;;;;;;28.74;17.51;100843.84;5075864;28;836;-38
2022/02/19 11:30:34;;;;;;;;;;;;;;;29.31;17.28;100838.56;5076831;28;923;-37
2022/02/19 11:33:00;;;;;;;;;;;;;;;29.39;17.29;100839.44;5070854;28;1097;-36
2022/02/19 11:35:35;;;;;;;;;;;;;;;29.20;17.53;100842.66;5078564;28;825;-36
2022/02/19 11:38:01;;;;;;;;;;;;;;;29.09;17.75;100840.47;5079708;28;905;-37
2022/02/19 11:40:27;;;;;;;;;;;;;;;29.08;17.86;100827.94;5079141;28;1914;-36
2022/02/19 11:42:53;;;;;;;;;;;;;;;29.13;17.69;100833.59;5069913;28;1379;-37
2022/02/19 11:45:28;;;;;;;;;;;;;;;29.20;17.73;100822.84;5078690;28;831;-37
2022/02/19 11:48:02;;;;;;;;;;;;;;;29.09;17.68;100808.78;5073891;28;880;-36
2022/02/19 11:50:29;;;;;;;;;;;;;;;29.03;17.91;100809.56;5078922;28;925;-36
2022/02/19 11:53:10;;;;;;;;;;;;;;;28.56;18.47;100817.22;5079375;28;829;-37
2022/02/19 11:55:37;;;;;;;;;;;;;;;29.04;17.97;100803.13;5077727;28;842;-37
2022/02/19 11:58:05;;;;;;;;;;;;;;;29.37;17.73;100806.28;5075570;28;822;-38
2022/02/19 12:00:46;;;;;;;;;;;;;;;29.40;17.69;100797.75;5078799;28;1953;-37
2022/02/19 12:03:21;;;;;;;;;;;;;;;29.17;17.96;100798.84;5079283;28;891;-38
2022/02/19 12:06:05;;;;;;;;;;;;;;;29.11;18.29;100803.19;5078870;28;877;-37
2022/02/19 12:08:45;;;;;;;;;;;;;;;29.17;18.21;100790.72;5078825;28;802;-37
2022/02/19 12:11:11;;;;;;;;;;;;;;;29.00;17.93;100799.13;5078883;28;1015;-45
2022/02/19 12:13:46;;;;;;;;;;;;;;;28.65;18.71;100797.09;5078803;28;809;-48
2022/02/19 12:16:39;;;;;;;;;;;;;;;29.41;17.83;100792.13;5074737;28;875;-38
2022/02/19 12:19:05;;;;;;;;;;;;;;;29.34;17.85;100792.09;5079046;28;853;-38
2022/02/19 12:21:35;;;;;;;;;;;;;;;29.16;18.18;100780.94;5078383;28;1909;-37
2022/02/19 12:24:21;;;;;;;;;;;;;;;29.09;18.43;100775.47;5079159;28;811;-37
2022/02/19 12:26:55;;;;;;;;;;;;;;;29.11;18.15;100767.13;5078436;28;889;-37
2022/02/19 12:29:31;;;;;;;;;;;;;;;29.08;18.27;100773.75;5078976;28;852;-39
2022/02/19 12:32:03;;;;;;;;;;;;;;;29.09;18.57;100776.28;5075982;28;1200;-39
2022/02/19 12:34:28;;;;;;;;;;;;;;;28.84;18.63;100768.53;5078149;28;857;-37
2022/02/19 12:36:54;;;;;;;;;;;;;;;28.86;18.56;100768.38;5076882;28;781;-37
2022/02/19 12:39:21;;;;;;;;;;;;;;;29.39;18.15;100769.84;5077872;28;1913;-37
2022/02/19 12:41:46;;;;;;;;;;;;;;;29.28;17.94;100765.78;5074488;28;1254;-38
2022/02/19 12:44:13;;;;;;;;;;;;;;;29.18;18.17;100762.59;5078141;28;806;-38
2022/02/19 12:46:39;;;;;;;;;;;;;;;29.21;18.38;100764.94;5075044;28;871;-38
2022/02/19 12:49:04;;;;;;;;;;;;;;;29.18;18.41;100766.16;5078331;28;766;-35
2022/02/19 12:51:30;;;;;;;;;;;;;;;29.20;18.33;100769.50;5078167;28;789;-40
2022/02/19 12:53:55;;;;;;;;;;;;;;;28.94;18.41;100770.94;5077293;28;797;-38
2022/02/19 12:56:20;;;;;;;;;;;;;;;28.98;18.33;100765.16;5078190;28;765;-39